createdAt,value
2017-12-27T00:00:10.166Z,3.15
2017-12-27T00:01:24.861Z,3.06
2017-12-27T00:02:10.196Z,3.11
2017-12-27T00:03:10.202Z,3.15
2017-12-27T00:04:09.975Z,3.05
2017-12-27T00:06:10.275Z,3.2
2017-12-27T00:07:10.317Z,3.05
2017-12-27T00:08:10.043Z,3.06
2017-12-27T00:09:10.334Z,3
2017-12-27T00:10:10.335Z,2.97
2017-12-27T00:11:10.327Z,3.1
2017-12-27T00:12:10.367Z,3.08
2017-12-27T00:13:24.799Z,3.05
2017-12-27T00:14:10.375Z,3.06
2017-12-27T00:15:10.408Z,2.93
2017-12-27T00:16:10.399Z,2.9
2017-12-27T00:17:10.182Z,2.96
2017-12-27T00:18:09.944Z,2.82
2017-12-27T00:19:10.194Z,2.95
2017-12-27T00:20:10.483Z,2.87
2017-12-27T00:21:10.228Z,2.96
2017-12-27T00:22:10.520Z,2.96
2017-12-27T00:23:10.549Z,3.02
2017-12-27T00:24:10.546Z,2.97
2017-12-27T00:25:10.541Z,2.85
2017-12-27T00:27:10.570Z,2.82
2017-12-27T00:28:10.587Z,2.82
2017-12-27T00:29:10.359Z,2.75
2017-12-27T00:31:10.400Z,2.75
2017-12-27T00:32:10.401Z,2.69
2017-12-27T00:33:25.339Z,2.72
2017-12-27T00:34:10.672Z,2.71
2017-12-27T00:35:10.705Z,2.72
2017-12-27T00:36:10.707Z,2.74
2017-12-27T00:37:10.738Z,2.74
2017-12-27T00:38:10.733Z,2.66
2017-12-27T00:39:10.771Z,2.61
2017-12-27T00:41:10.793Z,2.66
2017-12-27T00:42:10.804Z,2.57
2017-12-27T00:43:10.810Z,2.75
2017-12-27T00:44:10.844Z,2.72
2017-12-27T00:45:10.575Z,2.69
2017-12-27T00:46:10.860Z,2.71
2017-12-27T00:47:10.856Z,2.61
2017-12-27T00:48:10.874Z,2.72
2017-12-27T00:49:25.586Z,2.6
2017-12-27T00:50:10.921Z,2.54
2017-12-27T00:51:10.722Z,2.57
2017-12-27T00:52:10.976Z,2.63
2017-12-27T00:54:25.387Z,2.64
2017-12-27T00:55:10.979Z,2.71
2017-12-27T00:56:10.743Z,2.74
2017-12-27T00:57:10.786Z,2.74
2017-12-27T00:58:10.791Z,2.75
2017-12-27T00:59:11.059Z,2.71
2017-12-27T01:00:25.735Z,2.75
2017-12-27T01:01:11.073Z,2.74
2017-12-27T01:02:11.080Z,2.71
2017-12-27T01:03:11.119Z,2.64
2017-12-27T01:04:10.891Z,2.71
2017-12-27T01:05:25.562Z,2.57
2017-12-27T01:07:11.202Z,2.66
2017-12-27T01:08:11.170Z,2.66
2017-12-27T01:09:11.280Z,2.72
2017-12-27T01:10:11.225Z,2.64
2017-12-27T01:12:11.245Z,2.56
2017-12-27T01:13:25.924Z,2.45
2017-12-27T01:14:11.286Z,2.57
2017-12-27T01:15:11.269Z,2.54
2017-12-27T01:16:11.068Z,2.56
2017-12-27T01:17:11.329Z,2.56
2017-12-27T01:18:11.324Z,2.59
2017-12-27T01:19:11.380Z,2.46
2017-12-27T01:20:26.017Z,2.52
2017-12-27T01:21:25.795Z,2.49
2017-12-27T01:22:11.387Z,2.45
2017-12-27T01:23:11.405Z,2.45
2017-12-27T01:24:11.146Z,2.36
2017-12-27T01:25:11.198Z,2.49
2017-12-27T01:26:11.472Z,2.43
2017-12-27T01:27:26.125Z,2.31
2017-12-27T01:28:11.211Z,2.48
2017-12-27T01:29:11.495Z,2.49
2017-12-27T01:30:11.240Z,2.35
2017-12-27T01:31:11.664Z,2.35
2017-12-27T01:32:11.524Z,2.38
2017-12-27T01:33:11.422Z,2.38
2017-12-27T01:34:11.566Z,2.34
2017-12-27T01:35:11.564Z,2.34
2017-12-27T01:36:26.274Z,2.3
2017-12-27T01:37:11.368Z,2.31
2017-12-27T01:38:11.604Z,2.27
2017-12-27T01:39:26.321Z,2.3
2017-12-27T01:40:11.379Z,2.23
2017-12-27T01:41:11.413Z,2.25
2017-12-27T01:42:11.682Z,2.12
2017-12-27T01:43:11.690Z,2.1
2017-12-27T01:44:11.463Z,2.09
2017-12-27T01:45:11.569Z,2.12
2017-12-27T01:46:11.724Z,2.2
2017-12-27T01:47:11.771Z,2.24
2017-12-27T01:48:11.770Z,2.17
2017-12-27T01:49:11.536Z,2.2
2017-12-27T01:50:11.788Z,2.25
2017-12-27T01:51:11.789Z,2.2
2017-12-27T01:52:11.811Z,2.24
2017-12-27T01:53:11.818Z,2.09
2017-12-27T01:54:11.844Z,2.17
2017-12-27T01:55:11.848Z,2.21
2017-12-27T01:56:11.616Z,2.24
2017-12-27T01:57:11.914Z,2.16
2017-12-27T01:58:11.921Z,2.23
2017-12-27T01:59:11.931Z,2.2
2017-12-27T02:00:26.624Z,2.2
2017-12-27T02:01:26.362Z,2.25
2017-12-27T02:02:11.701Z,2.16
2017-12-27T02:03:11.963Z,2.14
2017-12-27T02:04:12.011Z,2.14
2017-12-27T02:05:12.037Z,2.02
2017-12-27T02:06:26.691Z,1.83
2017-12-27T02:07:12.043Z,1.93
2017-12-27T02:08:26.713Z,1.7
2017-12-27T02:09:12.073Z,1.66
2017-12-27T02:10:11.820Z,1.68
2017-12-27T02:11:12.107Z,1.69
2017-12-27T02:12:12.089Z,1.59
2017-12-27T02:13:12.129Z,1.63
2017-12-27T02:16:12.182Z,1.69
2017-12-27T02:17:12.165Z,1.69
2017-12-27T02:18:11.945Z,1.77
2017-12-27T02:19:12.197Z,1.7
2017-12-27T02:20:12.202Z,1.77
2017-12-27T02:21:12.221Z,1.79
2017-12-27T02:22:12.255Z,1.91
2017-12-27T02:23:12.277Z,2
2017-12-27T02:24:26.967Z,2.03
2017-12-27T02:25:12.322Z,2.06
2017-12-27T02:26:11.794Z,1.91
2017-12-27T02:27:12.326Z,1.99
2017-12-27T02:28:12.323Z,2.02
2017-12-27T02:29:12.115Z,1.93
2017-12-27T02:30:12.355Z,1.93
2017-12-27T02:31:12.373Z,1.93
2017-12-27T02:32:12.396Z,1.8
2017-12-27T02:33:12.396Z,1.83
2017-12-27T02:34:12.427Z,1.84
2017-12-27T02:35:12.179Z,1.79
2017-12-27T02:36:12.463Z,1.68
2017-12-27T02:37:12.460Z,1.66
2017-12-27T02:38:12.495Z,1.69
2017-12-27T02:39:12.250Z,1.65
2017-12-27T02:40:27.166Z,1.62
2017-12-27T02:41:12.504Z,1.62
2017-12-27T02:43:12.553Z,1.45
2017-12-27T02:44:12.061Z,1.42
2017-12-27T02:45:12.328Z,1.55
2017-12-27T02:46:12.706Z,1.59
2017-12-27T02:47:12.595Z,1.62
2017-12-27T02:48:12.606Z,1.58
2017-12-27T02:50:12.633Z,1.6
2017-12-27T02:51:12.647Z,1.52
2017-12-27T02:52:12.679Z,1.41
2017-12-27T02:53:12.696Z,1.37
2017-12-27T02:54:12.449Z,1.37
2017-12-27T02:55:12.724Z,1.34
2017-12-27T02:56:27.150Z,1.34
2017-12-27T02:57:12.758Z,1.36
2017-12-27T02:58:12.744Z,1.4
2017-12-27T02:59:12.807Z,1.44
2017-12-27T03:00:27.475Z,1.4
2017-12-27T03:01:12.809Z,1.37
2017-12-27T03:02:12.824Z,1.32
2017-12-27T03:04:27.255Z,1.33
2017-12-27T03:05:12.841Z,1.34
2017-12-27T03:06:12.866Z,1.42
2017-12-27T03:07:12.891Z,1.42
2017-12-27T03:08:12.879Z,1.29
2017-12-27T03:09:12.647Z,1.34
2017-12-27T03:10:12.921Z,1.34
2017-12-27T03:11:27.632Z,1.34
2017-12-27T03:12:12.961Z,1.32
2017-12-27T03:13:12.952Z,1.27
2017-12-27T03:14:12.992Z,1.15
2017-12-27T03:15:12.982Z,1.16
2017-12-27T03:16:12.742Z,1.14
2017-12-27T03:18:13.041Z,1.18
2017-12-27T03:19:13.088Z,1.02
2017-12-27T03:20:13.065Z,1.11
2017-12-27T03:21:12.831Z,1.11
2017-12-27T03:22:12.594Z,1.05
2017-12-27T03:23:12.873Z,1.02
2017-12-27T03:24:13.109Z,1.11
2017-12-27T03:25:12.881Z,1.33
2017-12-27T03:26:12.899Z,1.36
2017-12-27T03:27:12.916Z,1.32
2017-12-27T03:28:12.942Z,1.32
2017-12-27T03:29:13.193Z,1.32
2017-12-27T03:30:12.945Z,1.45
2017-12-27T03:31:12.958Z,1.33
2017-12-27T03:32:13.248Z,1.24
2017-12-27T03:33:13.258Z,1.12
2017-12-27T03:34:13.267Z,1.09
2017-12-27T03:35:13.281Z,1.12
2017-12-27T03:36:13.303Z,1.14
2017-12-27T03:37:13.305Z,1.23
2017-12-27T03:38:13.317Z,1.14
2017-12-27T03:39:13.071Z,1.18
2017-12-27T03:40:28.001Z,1.11
2017-12-27T03:41:13.355Z,1.14
2017-12-27T03:42:13.390Z,1.2
2017-12-27T03:43:28.069Z,1.11
2017-12-27T03:44:13.168Z,1.11
2017-12-27T03:45:13.147Z,1.15
2017-12-27T03:46:13.411Z,1.16
2017-12-27T03:47:13.419Z,1.18
2017-12-27T03:48:13.455Z,1.24
2017-12-27T03:49:13.475Z,1.3
2017-12-27T03:50:13.459Z,1.26
2017-12-27T03:51:28.161Z,1.33
2017-12-27T03:52:13.273Z,1.36
2017-12-27T03:53:13.527Z,1.32
2017-12-27T03:54:13.528Z,1.32
2017-12-27T03:55:13.555Z,1.44
2017-12-27T03:56:13.661Z,1.42
2017-12-27T03:57:13.573Z,1.34
2017-12-27T03:58:13.677Z,1.42
2017-12-27T03:59:28.292Z,1.32
2017-12-27T04:01:13.631Z,1.3
2017-12-27T04:02:13.659Z,1.3
2017-12-27T04:03:13.663Z,1.15
2017-12-27T04:04:13.190Z,1.29
2017-12-27T04:05:13.701Z,1.12
2017-12-27T04:06:28.379Z,1.04
2017-12-27T04:07:28.397Z,1.06
2017-12-27T04:08:13.728Z,1.18
2017-12-27T04:09:28.405Z,1.08
2017-12-27T04:10:13.760Z,1.05
2017-12-27T04:11:13.758Z,1
2017-12-27T04:12:13.788Z,0.97
2017-12-27T04:13:13.546Z,0.91
2017-12-27T04:14:13.824Z,0.91
2017-12-27T04:15:28.240Z,0.83
2017-12-27T04:16:13.847Z,0.79
2017-12-27T04:17:13.901Z,0.75
2017-12-27T04:18:13.625Z,0.69
2017-12-27T04:19:13.610Z,0.7
2017-12-27T04:20:13.915Z,0.83
2017-12-27T04:21:28.592Z,0.68
2017-12-27T04:22:13.676Z,0.84
2017-12-27T04:23:13.919Z,0.86
2017-12-27T04:24:13.950Z,0.86
2017-12-27T04:25:13.972Z,0.94
2017-12-27T04:26:13.952Z,0.96
2017-12-27T04:27:13.997Z,0.96
2017-12-27T04:28:28.668Z,0.84
2017-12-27T04:29:14.044Z,0.83
2017-12-27T04:30:14.041Z,0.86
2017-12-27T04:32:14.059Z,0.88
2017-12-27T04:33:14.050Z,0.88
2017-12-27T04:34:14.092Z,0.91
2017-12-27T04:35:13.847Z,0.83
2017-12-27T04:36:13.839Z,0.68
2017-12-27T04:37:13.865Z,0.75
2017-12-27T04:38:14.121Z,0.75
2017-12-27T04:39:13.648Z,0.72
2017-12-27T04:40:14.170Z,0.73
2017-12-27T04:41:13.917Z,0.72
2017-12-27T04:42:14.177Z,0.78
2017-12-27T04:43:14.227Z,0.87
2017-12-27T04:44:14.217Z,0.97
2017-12-27T04:45:13.993Z,0.9
2017-12-27T04:46:28.656Z,0.98
2017-12-27T04:47:14.034Z,0.9
2017-12-27T04:48:14.288Z,0.83
2017-12-27T04:49:14.036Z,0.87
2017-12-27T04:50:14.286Z,0.91
2017-12-27T04:51:14.327Z,0.87
2017-12-27T04:52:14.310Z,0.9
2017-12-27T04:53:14.075Z,0.98
2017-12-27T04:54:14.087Z,0.91
2017-12-27T04:55:14.357Z,0.98
2017-12-27T04:56:14.383Z,0.84
2017-12-27T04:57:14.400Z,0.9
2017-12-27T04:58:14.437Z,1
2017-12-27T04:59:14.449Z,0.84
2017-12-27T05:00:14.450Z,0.88
2017-12-27T05:01:29.108Z,0.83
2017-12-27T05:02:14.216Z,0.8
2017-12-27T05:03:14.515Z,0.84
2017-12-27T05:06:14.001Z,1
2017-12-27T05:07:14.530Z,0.98
2017-12-27T05:08:14.550Z,1.02
2017-12-27T05:09:14.560Z,1.11
2017-12-27T05:11:14.585Z,1.04
2017-12-27T05:12:14.606Z,1.02
2017-12-27T05:13:14.592Z,1.04
2017-12-27T05:14:14.616Z,0.97
2017-12-27T05:15:14.384Z,1.02
2017-12-27T05:16:14.652Z,0.97
2017-12-27T05:17:14.662Z,1
2017-12-27T05:19:14.672Z,0.93
2017-12-27T05:20:14.700Z,0.87
2017-12-27T05:21:14.721Z,0.84
2017-12-27T05:22:14.716Z,0.93
2017-12-27T05:23:14.850Z,1
2017-12-27T05:24:14.783Z,0.96
2017-12-27T05:25:14.760Z,0.94
2017-12-27T05:26:14.764Z,0.9
2017-12-27T05:27:29.458Z,0.91
2017-12-27T05:28:14.811Z,1.02
2017-12-27T05:29:14.563Z,0.9
2017-12-27T05:30:14.826Z,0.83
2017-12-27T05:31:14.838Z,0.94
2017-12-27T05:32:14.620Z,0.97
2017-12-27T05:33:14.888Z,0.93
2017-12-27T05:34:29.555Z,1.06
2017-12-27T05:35:14.664Z,0.96
2017-12-27T05:36:14.917Z,1
2017-12-27T05:37:14.683Z,0.98
2017-12-27T05:38:14.690Z,1.04
2017-12-27T05:39:14.941Z,1.05
2017-12-27T05:40:14.987Z,1.11
2017-12-27T05:41:14.748Z,1.12
2017-12-27T05:43:14.767Z,1.04
2017-12-27T05:44:14.757Z,1.16
2017-12-27T05:45:15.030Z,1.14
2017-12-27T05:46:15.080Z,1.06
2017-12-27T05:47:15.052Z,1
2017-12-27T05:48:15.098Z,1.11
2017-12-27T05:49:14.829Z,1
2017-12-27T05:50:29.515Z,1.16
2017-12-27T05:51:14.853Z,0.98
2017-12-27T05:52:14.890Z,0.97
2017-12-27T05:53:14.888Z,0.98
2017-12-27T05:54:15.137Z,0.98
2017-12-27T05:55:15.156Z,1.04
2017-12-27T05:56:14.934Z,1.06
2017-12-27T05:57:14.957Z,0.97
2017-12-27T05:58:15.243Z,0.97
2017-12-27T05:59:15.227Z,1.09
2017-12-27T06:00:14.993Z,1.09
2017-12-27T06:01:15.261Z,1.06
2017-12-27T06:02:15.250Z,1.04
2017-12-27T06:03:15.308Z,0.94
2017-12-27T06:04:15.295Z,0.98
2017-12-27T06:05:15.309Z,1
2017-12-27T06:06:29.986Z,1
2017-12-27T06:07:15.336Z,1.09
2017-12-27T06:08:15.364Z,1.05
2017-12-27T06:09:15.421Z,1.08
2017-12-27T06:10:15.381Z,1.04
2017-12-27T06:11:15.396Z,1.11
2017-12-27T06:12:15.410Z,1
2017-12-27T06:13:15.416Z,1.08
2017-12-27T06:14:15.432Z,1.04
2017-12-27T06:15:15.428Z,1.02
2017-12-27T06:16:15.444Z,1.05
2017-12-27T06:17:30.148Z,0.94
2017-12-27T06:18:15.465Z,1.09
2017-12-27T06:19:15.507Z,0.88
2017-12-27T06:20:15.613Z,0.98
2017-12-27T06:21:30.203Z,1.05
2017-12-27T06:22:15.563Z,0.98
2017-12-27T06:23:15.550Z,0.94
2017-12-27T06:24:15.584Z,0.83
2017-12-27T06:25:15.578Z,0.88
2017-12-27T06:26:15.592Z,0.84
2017-12-27T06:27:15.100Z,0.91
2017-12-27T06:28:15.616Z,0.84
2017-12-27T06:29:15.661Z,0.97
2017-12-27T06:30:15.634Z,0.96
2017-12-27T06:31:15.404Z,0.93
2017-12-27T06:32:15.420Z,0.96
2017-12-27T06:33:15.435Z,0.97
2017-12-27T06:34:15.718Z,1
2017-12-27T06:35:15.715Z,1.09
2017-12-27T06:36:15.231Z,1.16
2017-12-27T06:37:15.742Z,1.05
2017-12-27T06:38:15.501Z,1.16
2017-12-27T06:39:15.776Z,1.12
2017-12-27T06:40:15.761Z,1.14
2017-12-27T06:41:15.815Z,1.24
2017-12-27T06:42:15.781Z,1.15
2017-12-27T06:43:30.502Z,1.2
2017-12-27T06:44:15.309Z,1.15
2017-12-27T06:45:15.851Z,1.18
2017-12-27T06:46:15.845Z,1.06
2017-12-27T06:47:15.850Z,0.97
2017-12-27T06:48:15.892Z,1.12
2017-12-27T06:49:15.629Z,1.12
2017-12-27T06:50:15.922Z,0.98
2017-12-27T06:51:15.680Z,0.98
2017-12-27T06:52:15.681Z,1.05
2017-12-27T06:53:30.636Z,0.9
2017-12-27T06:54:15.700Z,0.94
2017-12-27T06:55:15.730Z,0.94
2017-12-27T06:56:15.986Z,0.93
2017-12-27T06:57:16.005Z,1.04
2017-12-27T06:58:15.759Z,1.04
2017-12-27T06:59:15.767Z,1.04
2017-12-27T07:00:16.029Z,1.02
2017-12-27T07:01:16.052Z,1
2017-12-27T07:02:16.058Z,1
2017-12-27T07:03:30.749Z,0.93
2017-12-27T07:04:15.843Z,0.96
2017-12-27T07:05:16.100Z,0.97
2017-12-27T07:06:15.867Z,1.02
2017-12-27T07:07:16.128Z,0.96
2017-12-27T07:08:15.880Z,1.09
2017-12-27T07:10:16.178Z,1.12
2017-12-27T07:11:16.192Z,1.09
2017-12-27T07:12:30.887Z,1.02
2017-12-27T07:13:16.216Z,1.12
2017-12-27T07:14:15.968Z,1.11
2017-12-27T07:15:15.978Z,1.04
2017-12-27T07:16:16.254Z,1.2
2017-12-27T07:17:16.272Z,1.18
2017-12-27T07:18:16.266Z,1.02
2017-12-27T07:19:16.291Z,1.11
2017-12-27T07:20:16.289Z,1.11
2017-12-27T07:21:16.314Z,1.09
2017-12-27T07:23:16.352Z,0.97
2017-12-27T07:24:16.392Z,1.02
2017-12-27T07:25:31.058Z,1.02
2017-12-27T07:26:31.066Z,1
2017-12-27T07:27:16.389Z,0.96
2017-12-27T07:28:16.425Z,1.02
2017-12-27T07:29:16.438Z,0.91
2017-12-27T07:30:16.454Z,1.06
2017-12-27T07:31:16.473Z,0.94
2017-12-27T07:32:16.472Z,1.02
2017-12-27T07:33:16.465Z,0.94
2017-12-27T07:34:31.186Z,0.98
2017-12-27T07:35:16.513Z,1.12
2017-12-27T07:36:16.534Z,1.02
2017-12-27T07:37:16.561Z,0.93
2017-12-27T07:38:16.559Z,0.91
2017-12-27T07:39:16.551Z,0.96
2017-12-27T07:40:16.579Z,0.93
2017-12-27T07:41:31.265Z,1
2017-12-27T07:42:16.359Z,1.04
2017-12-27T07:43:16.628Z,1.16
2017-12-27T07:44:16.381Z,1.15
2017-12-27T07:45:31.054Z,1.16
2017-12-27T07:46:16.665Z,1.11
2017-12-27T07:47:16.674Z,1.14
2017-12-27T07:48:31.348Z,1.08
2017-12-27T07:49:16.692Z,1.15
2017-12-27T07:50:16.722Z,1.18
2017-12-27T07:51:31.408Z,1.27
2017-12-27T07:52:16.732Z,1.14
2017-12-27T07:53:16.777Z,1.18
2017-12-27T07:54:16.770Z,1.22
2017-12-27T07:55:31.447Z,1.23
2017-12-27T07:56:31.462Z,1.33
2017-12-27T07:57:16.794Z,1.24
2017-12-27T07:58:16.802Z,1.34
2017-12-27T07:59:16.842Z,1.3
2017-12-27T08:00:16.856Z,1.36
2017-12-27T08:01:16.890Z,1.41
2017-12-27T08:02:16.868Z,1.41
2017-12-27T08:03:31.559Z,1.34
2017-12-27T08:04:16.912Z,1.36
2017-12-27T08:05:16.920Z,1.33
2017-12-27T08:06:16.918Z,1.36
2017-12-27T08:08:16.948Z,1.45
2017-12-27T08:09:16.710Z,1.4
2017-12-27T08:10:16.995Z,1.33
2017-12-27T08:11:17.001Z,1.33
2017-12-27T08:12:16.990Z,1.51
2017-12-27T08:13:17.029Z,1.4
2017-12-27T08:14:17.048Z,1.45
2017-12-27T08:15:17.057Z,1.45
2017-12-27T08:16:17.081Z,1.54
2017-12-27T08:18:17.081Z,1.54
2017-12-27T08:19:17.118Z,1.62
2017-12-27T08:20:16.875Z,1.6
2017-12-27T08:21:17.121Z,1.59
2017-12-27T08:22:16.911Z,1.62
2017-12-27T08:23:17.164Z,1.7
2017-12-27T08:24:16.924Z,1.8
2017-12-27T08:25:16.937Z,1.79
2017-12-27T08:26:17.209Z,1.81
2017-12-27T08:27:17.227Z,1.79
2017-12-27T08:28:31.893Z,1.86
2017-12-27T08:29:16.990Z,1.91
2017-12-27T08:30:17.381Z,2.02
2017-12-27T08:31:17.271Z,1.9
2017-12-27T08:32:17.275Z,2.03
2017-12-27T08:33:17.297Z,2.05
2017-12-27T08:34:17.373Z,2.03
2017-12-27T08:35:17.340Z,1.99
2017-12-27T08:36:17.096Z,2.02
2017-12-27T08:37:32.023Z,2.03
2017-12-27T08:38:17.360Z,2.06
2017-12-27T08:39:17.395Z,2.12
2017-12-27T08:40:17.404Z,2.09
2017-12-27T08:41:17.441Z,2.09
2017-12-27T08:42:17.434Z,2.07
2017-12-27T08:43:17.456Z,2.14
2017-12-27T08:44:32.121Z,2.14
2017-12-27T08:45:17.226Z,2.18
2017-12-27T08:46:17.460Z,2.2
2017-12-27T08:47:17.512Z,2.25
2017-12-27T08:48:17.498Z,2.34
2017-12-27T08:49:17.261Z,2.34
2017-12-27T08:51:17.287Z,2.42
2017-12-27T08:52:17.552Z,2.49
2017-12-27T08:53:17.323Z,2.35
2017-12-27T08:54:17.582Z,2.42
2017-12-27T08:55:17.608Z,2.36
2017-12-27T08:56:17.383Z,2.45
2017-12-27T08:57:17.646Z,2.53
2017-12-27T08:58:17.676Z,2.54
2017-12-27T08:59:17.672Z,2.54
2017-12-27T09:00:32.350Z,2.49
2017-12-27T09:01:17.681Z,2.59
2017-12-27T09:02:17.735Z,2.74
2017-12-27T09:03:17.712Z,2.72
2017-12-27T09:04:32.420Z,2.64
2017-12-27T09:05:17.510Z,2.72
2017-12-27T09:06:17.771Z,2.71
2017-12-27T09:07:17.771Z,2.66
2017-12-27T09:08:17.781Z,2.71
2017-12-27T09:09:17.813Z,2.77
2017-12-27T09:10:17.807Z,2.81
2017-12-27T09:11:17.585Z,2.79
2017-12-27T09:12:17.875Z,2.87
2017-12-27T09:14:32.554Z,2.92
2017-12-27T09:15:17.886Z,2.96
2017-12-27T09:16:32.576Z,2.9
2017-12-27T09:17:17.690Z,2.96
2017-12-27T09:18:17.929Z,3.08
2017-12-27T09:19:18.013Z,3.14
2017-12-27T09:20:17.983Z,3.15
2017-12-27T09:21:18.075Z,3.11
2017-12-27T09:22:18.015Z,3.14
2017-12-27T09:23:18.021Z,3.18
2017-12-27T09:24:18.011Z,3.26
2017-12-27T09:25:18.032Z,3.23
2017-12-27T09:27:18.068Z,3.26
2017-12-27T09:28:32.757Z,3.24
2017-12-27T09:29:18.111Z,3.31
2017-12-27T09:30:17.857Z,3.31
2017-12-27T09:31:32.816Z,3.48
2017-12-27T09:32:17.905Z,3.43
2017-12-27T09:34:32.866Z,3.4
2017-12-27T09:35:17.953Z,3.36
2017-12-27T09:36:18.237Z,3.33
2017-12-27T09:37:18.234Z,3.48
2017-12-27T09:38:18.251Z,3.54
2017-12-27T09:39:32.918Z,3.47
2017-12-27T09:40:18.268Z,3.45
2017-12-27T09:41:32.954Z,3.4
2017-12-27T09:42:18.302Z,3.42
2017-12-27T09:44:18.334Z,3.43
2017-12-27T09:45:18.098Z,3.51
2017-12-27T09:46:18.351Z,3.51
2017-12-27T09:47:18.371Z,3.5
2017-12-27T09:50:18.410Z,3.48
2017-12-27T09:51:18.441Z,3.48
2017-12-27T09:52:33.120Z,3.61
2017-12-27T09:53:18.448Z,3.61
2017-12-27T09:54:18.488Z,3.6
2017-12-27T09:55:18.480Z,3.6
2017-12-27T09:56:18.513Z,3.7
2017-12-27T09:57:18.525Z,3.72
2017-12-27T09:58:18.551Z,3.7
2017-12-27T10:00:18.546Z,3.68
2017-12-27T10:01:18.571Z,3.84
2017-12-27T10:02:18.723Z,3.79
2017-12-27T10:03:33.282Z,3.83
2017-12-27T10:04:18.633Z,3.79
2017-12-27T10:05:18.648Z,3.86
2017-12-27T10:06:18.647Z,3.9
2017-12-27T10:07:18.662Z,4.02
2017-12-27T10:08:18.701Z,4.04
2017-12-27T10:09:18.215Z,3.96
2017-12-27T10:10:18.722Z,4.06
2017-12-27T10:11:18.475Z,4.08
2017-12-27T10:12:18.764Z,4.06
2017-12-27T10:13:18.776Z,4.09
2017-12-27T10:14:18.784Z,4.14
2017-12-27T10:15:18.827Z,4.09
2017-12-27T10:16:18.816Z,4.27
2017-12-27T10:17:18.828Z,4.24
2017-12-27T10:18:33.503Z,4.3
2017-12-27T10:19:33.519Z,4.36
2017-12-27T10:20:18.898Z,4.33
2017-12-27T10:21:18.893Z,4.34
2017-12-27T10:22:18.640Z,4.37
2017-12-27T10:23:33.333Z,4.44
2017-12-27T10:24:18.938Z,4.47
2017-12-27T10:25:18.942Z,4.51
2017-12-27T10:26:18.987Z,4.36
2017-12-27T10:27:18.978Z,4.34
2017-12-27T10:28:19.002Z,4.32
2017-12-27T10:29:33.683Z,4.48
2017-12-27T10:30:19.030Z,4.45
2017-12-27T10:31:19.025Z,4.5
2017-12-27T10:32:19.053Z,4.51
2017-12-27T10:33:19.092Z,4.48
2017-12-27T10:35:33.788Z,4.55
2017-12-27T10:36:19.115Z,4.66
2017-12-27T10:37:19.150Z,4.67
2017-12-27T10:38:18.895Z,4.72
2017-12-27T10:39:19.172Z,4.7
2017-12-27T10:40:19.207Z,4.78
2017-12-27T10:41:18.679Z,4.8
2017-12-27T10:42:19.216Z,4.75
2017-12-27T10:43:19.250Z,4.84
2017-12-27T10:44:18.995Z,4.88
2017-12-27T10:45:19.252Z,4.89
2017-12-27T10:46:19.291Z,4.91
2017-12-27T10:47:19.314Z,4.96
2017-12-27T10:48:19.295Z,5.1
2017-12-27T10:49:33.990Z,5.07
2017-12-27T10:50:19.322Z,5.09
2017-12-27T10:51:34.038Z,5.13
2017-12-27T10:52:19.352Z,5.24
2017-12-27T10:53:19.390Z,5.25
2017-12-27T10:54:19.138Z,5.3
2017-12-27T10:55:19.431Z,5.36
2017-12-27T10:56:19.170Z,5.28
2017-12-27T10:57:19.480Z,5.28
2017-12-27T10:58:19.235Z,5.42
2017-12-27T10:59:19.473Z,5.43
2017-12-27T11:00:19.484Z,5.38
2017-12-27T11:01:34.194Z,5.39
2017-12-27T11:02:19.528Z,5.42
2017-12-27T11:03:34.214Z,5.45
2017-12-27T11:04:19.571Z,5.57
2017-12-27T11:05:19.592Z,5.49
2017-12-27T11:06:34.277Z,5.61
2017-12-27T11:07:19.637Z,5.49
2017-12-27T11:08:19.609Z,5.65
2017-12-27T11:09:19.630Z,5.65
2017-12-27T11:10:19.687Z,5.76
2017-12-27T11:11:19.666Z,5.76
2017-12-27T11:12:19.676Z,5.71
2017-12-27T11:13:19.736Z,5.74
2017-12-27T11:14:19.490Z,5.82
2017-12-27T11:15:19.768Z,5.86
2017-12-27T11:16:19.509Z,5.89
2017-12-27T11:17:34.442Z,5.86
2017-12-27T11:18:19.798Z,5.89
2017-12-27T11:19:19.556Z,5.9
2017-12-27T11:20:19.806Z,5.9
2017-12-27T11:21:19.824Z,5.97
2017-12-27T11:23:19.851Z,6.09
2017-12-27T11:25:19.633Z,6.08
2017-12-27T11:26:19.901Z,6.15
2017-12-27T11:27:19.922Z,6.12
2017-12-27T11:28:19.967Z,6.22
2017-12-27T11:29:19.700Z,6.25
2017-12-27T11:30:19.966Z,6.31
2017-12-27T11:31:19.986Z,6.3
2017-12-27T11:32:19.995Z,6.3
2017-12-27T11:33:20.040Z,6.31
2017-12-27T11:34:20.081Z,6.33
2017-12-27T11:35:34.723Z,6.34
2017-12-27T11:36:20.066Z,6.33
2017-12-27T11:37:19.857Z,6.38
2017-12-27T11:39:20.238Z,6.48
2017-12-27T11:40:20.130Z,6.54
2017-12-27T11:41:20.151Z,6.54
2017-12-27T11:42:20.262Z,6.59
2017-12-27T11:43:20.185Z,6.59
2017-12-27T11:44:20.325Z,6.76
2017-12-27T11:45:20.250Z,6.71
2017-12-27T11:46:20.273Z,6.71
2017-12-27T11:47:20.013Z,6.7
2017-12-27T11:48:20.277Z,6.7
2017-12-27T11:49:20.295Z,6.7
2017-12-27T11:50:34.988Z,6.7
2017-12-27T11:51:20.067Z,6.62
2017-12-27T11:52:20.358Z,6.62
2017-12-27T11:53:20.106Z,6.67
2017-12-27T11:54:35.070Z,6.7
2017-12-27T11:55:20.403Z,6.64
2017-12-27T11:56:20.428Z,6.71
2017-12-27T11:57:20.434Z,6.64
2017-12-27T11:58:20.454Z,6.74
2017-12-27T11:59:20.442Z,6.79
2017-12-27T12:00:20.496Z,6.73
2017-12-27T12:01:35.165Z,6.69
2017-12-27T12:02:20.517Z,6.73
2017-12-27T12:03:20.540Z,6.69
2017-12-27T12:04:20.538Z,6.64
2017-12-27T12:05:20.550Z,6.66
2017-12-27T12:06:20.565Z,6.59
2017-12-27T12:07:20.585Z,6.61
2017-12-27T12:08:20.626Z,6.61
2017-12-27T12:09:20.760Z,6.61
2017-12-27T12:10:35.314Z,6.58
2017-12-27T12:11:20.672Z,6.59
2017-12-27T12:12:20.423Z,6.59
2017-12-27T12:13:35.383Z,6.61
2017-12-27T12:14:20.470Z,6.55
2017-12-27T12:15:20.759Z,6.62
2017-12-27T12:16:20.735Z,6.58
2017-12-27T12:17:20.494Z,6.71
2017-12-27T12:18:20.764Z,6.66
2017-12-27T12:19:20.800Z,6.67
2017-12-27T12:20:20.836Z,6.71
2017-12-27T12:21:20.832Z,6.69
2017-12-27T12:22:20.352Z,6.59
2017-12-27T12:23:20.851Z,6.66
2017-12-27T12:24:20.620Z,6.64
2017-12-27T12:25:20.633Z,6.58
2017-12-27T12:26:35.630Z,6.7
2017-12-27T12:27:20.913Z,6.71
2017-12-27T12:28:20.973Z,6.7
2017-12-27T12:29:21.003Z,6.67
2017-12-27T12:30:20.987Z,6.7
2017-12-27T12:31:21.004Z,6.74
2017-12-27T12:32:35.691Z,6.67
2017-12-27T12:33:20.782Z,6.64
2017-12-27T12:34:21.039Z,6.69
2017-12-27T12:35:20.804Z,6.67
2017-12-27T12:36:21.192Z,6.59
2017-12-27T12:37:21.091Z,6.61
2017-12-27T12:38:21.131Z,6.67
2017-12-27T12:39:21.124Z,6.58
2017-12-27T12:41:35.849Z,6.58
2017-12-27T12:42:21.204Z,6.46
2017-12-27T12:43:20.946Z,6.59
2017-12-27T12:44:21.248Z,6.54
2017-12-27T12:45:21.223Z,6.38
2017-12-27T12:46:21.231Z,6.41
2017-12-27T12:47:21.010Z,6.52
2017-12-27T12:48:21.024Z,6.43
2017-12-27T12:49:21.340Z,6.52
2017-12-27T12:50:21.309Z,6.64
2017-12-27T12:51:21.337Z,6.58
2017-12-27T12:52:21.391Z,6.61
2017-12-27T12:53:35.800Z,6.66
2017-12-27T12:54:21.184Z,6.59
2017-12-27T12:55:21.413Z,6.61
2017-12-27T12:56:21.173Z,6.62
2017-12-27T12:57:21.441Z,6.55
2017-12-27T12:59:21.479Z,6.69
2017-12-27T13:00:21.217Z,6.71
2017-12-27T13:01:21.488Z,6.66
2017-12-27T13:02:21.520Z,6.67
2017-12-27T13:03:21.290Z,6.76
2017-12-27T13:04:21.540Z,6.7
2017-12-27T13:06:21.080Z,6.67
2017-12-27T13:07:21.682Z,6.73
2017-12-27T13:08:21.639Z,6.73
2017-12-27T13:09:21.370Z,6.61
2017-12-27T13:10:21.661Z,6.59
2017-12-27T13:11:21.431Z,6.61
2017-12-27T13:12:21.694Z,6.64
2017-12-27T13:13:36.421Z,6.64
2017-12-27T13:14:21.702Z,6.58
2017-12-27T13:16:21.798Z,6.62
2017-12-27T13:17:36.455Z,6.67
2017-12-27T13:18:21.791Z,6.67
2017-12-27T13:20:21.831Z,6.62
2017-12-27T13:21:21.846Z,6.62
2017-12-27T13:22:21.595Z,6.55
2017-12-27T13:23:21.864Z,6.61
2017-12-27T13:24:21.897Z,6.67
2017-12-27T13:25:21.930Z,6.55
2017-12-27T13:26:21.950Z,6.62
2017-12-27T13:27:21.685Z,6.64
2017-12-27T13:28:21.980Z,6.61
2017-12-27T13:29:36.630Z,6.66
2017-12-27T13:30:22.014Z,6.55
2017-12-27T13:31:21.987Z,6.62
2017-12-27T13:32:22.026Z,6.56
2017-12-27T13:33:22.045Z,6.56
2017-12-27T13:34:22.037Z,6.56
2017-12-27T13:36:21.851Z,6.58
2017-12-27T13:37:22.110Z,6.61
2017-12-27T13:38:22.126Z,6.58
2017-12-27T13:39:22.125Z,6.48
2017-12-27T13:40:22.145Z,6.41
2017-12-27T13:41:36.836Z,6.41
2017-12-27T13:42:22.199Z,6.41
2017-12-27T13:43:22.212Z,6.41
2017-12-27T13:44:22.249Z,6.52
2017-12-27T13:45:36.911Z,6.51
2017-12-27T13:47:22.309Z,6.51
2017-12-27T13:48:22.278Z,6.48
2017-12-27T13:49:22.289Z,6.41
2017-12-27T13:50:22.300Z,6.36
2017-12-27T13:51:22.361Z,6.41
2017-12-27T13:52:22.374Z,6.38
2017-12-27T13:53:22.360Z,6.3
2017-12-27T13:54:22.369Z,6.3
2017-12-27T13:55:22.402Z,6.4
2017-12-27T13:56:37.110Z,6.44
2017-12-27T13:57:22.446Z,6.44
2017-12-27T13:58:22.451Z,6.33
2017-12-27T14:00:22.489Z,6.43
2017-12-27T14:02:22.529Z,6.34
2017-12-27T14:03:22.543Z,6.41
2017-12-27T14:04:22.565Z,6.36
2017-12-27T14:05:22.653Z,6.41
2017-12-27T14:06:22.597Z,6.33
2017-12-27T14:07:22.608Z,6.25